Glasgow, Missouri
Current Conditions -  °F | °C
As of 8:35 AM on Wednesday 26 Nov 2014 (Local Time) from KMHL Reporting Station
Overcast Overcast  
Wind Chill: 31°   Ceiling: 700
Heat Index: 36°   Visibility: 10mi
Dew Point: 34°   Wind: 6mph
Humidity: 93%   Direction: 210°SSW
Pressure: 29.95"   Gusts: NA
Location:  39.23°N, 92.85°W
Report Text: KMHL 261435Z AUTO 21005KT 10SM BKN007 BKN012 OVC046 02/01 A2995 RMK AO2 P0003
Loading
Personal Weather Stations






























Interactive Weather Map New forecast layout! Learn more

10-Day Weather Forecast

Advertisements
Track Severe Weather on mobile